Time;durP1;ratioP1;P1;durP2;ratioP2;P2;SDS_P1;SDS_P2;PMS_P1;PMS_P2;Temp;Humidity;BMP_temperature;BMP_pressure;BME280_temperature;BME280_humidity;BME280_pressure;Samples;Min_cycle;Max_cycle;Signal;HPM_P1;HPM_P2
2023/06/14 00:01:47;;;;;;;4.90;1.92;;;16.60;99.90;;;;;;5093621;28;20530;-77
2023/06/14 00:04:13;;;;;;;5.07;1.40;;;16.60;99.90;;;;;;5093442;28;20052;-77
2023/06/14 00:06:41;;;;;;;4.07;1.70;;;16.50;99.90;;;;;;5094965;28;20126;-76
2023/06/14 00:09:08;;;;;;;5.43;1.63;;;16.60;99.90;;;;;;5093770;28;20052;-76
2023/06/14 00:11:34;;;;;;;5.43;1.67;;;16.50;99.90;;;;;;5094341;28;20483;-76
2023/06/14 00:14:00;;;;;;;5.22;1.70;;;16.50;99.90;;;;;;5093129;28;20051;-76
2023/06/14 00:16:25;;;;;;;3.58;1.60;;;16.50;99.90;;;;;;5094262;28;20040;-76
2023/06/14 00:18:54;;;;;;;6.97;1.95;;;16.50;99.90;;;;;;5094434;28;20040;-76
2023/06/14 00:21:19;;;;;;;5.47;1.52;;;16.40;99.90;;;;;;5094138;28;20086;-76
2023/06/14 00:23:46;;;;;;;5.38;2.10;;;16.40;99.90;;;;;;5094069;28;20156;-76
2023/06/14 00:26:12;;;;;;;4.07;1.77;;;16.30;99.90;;;;;;5093055;28;20061;-76
2023/06/14 00:28:38;;;;;;;3.45;1.70;;;16.30;99.90;;;;;;5094169;28;20206;-76
2023/06/14 00:31:04;;;;;;;4.00;1.60;;;16.20;99.90;;;;;;5093177;28;20134;-76
2023/06/14 00:33:30;;;;;;;5.53;1.52;;;16.20;99.90;;;;;;5094157;28;20051;-76
2023/06/14 00:35:55;;;;;;;3.45;1.95;;;16.20;99.90;;;;;;5094096;28;20044;-76
2023/06/14 00:38:21;;;;;;;3.60;1.60;;;16.10;99.90;;;;;;5094053;28;20046;-76
2023/06/14 00:40:47;;;;;;;4.97;1.60;;;16.10;99.90;;;;;;5094072;28;20118;-76
2023/06/14 00:43:12;;;;;;;3.40;1.65;;;16.10;99.90;;;;;;5093905;28;20364;-77
2023/06/14 00:45:38;;;;;;;7.75;1.80;;;16.10;99.90;;;;;;5092703;28;20524;-77
2023/06/14 00:48:06;;;;;;;6.40;1.60;;;16.10;99.90;;;;;;5093634;28;20087;-76
2023/06/14 00:50:32;;;;;;;3.85;1.50;;;16.10;99.90;;;;;;5093859;28;20475;-76
2023/06/14 00:53:00;;;;;;;4.88;1.40;;;16.00;99.90;;;;;;5093985;28;20091;-77
2023/06/14 00:55:27;;;;;;;3.35;1.52;;;16.00;99.90;;;;;;5093831;28;20108;-77
2023/06/14 00:57:54;;;;;;;4.13;1.50;;;16.00;99.90;;;;;;5092508;28;20127;-76
2023/06/14 01:00:20;;;;;;;4.40;1.70;;;15.90;99.90;;;;;;5093703;28;20391;-76
2023/06/14 01:02:46;;;;;;;4.57;1.63;;;15.90;99.90;;;;;;5092864;28;20487;-77
2023/06/14 01:05:13;;;;;;;5.53;1.80;;;15.90;99.90;;;;;;5092602;28;20094;-76
2023/06/14 01:08:30;;;;;;;5.97;1.65;;;15.90;99.90;;;;;;5093460;28;20052;-76
2023/06/14 01:11:13;;;;;;;5.03;1.58;;;15.90;99.90;;;;;;5059360;28;20052;-76
2023/06/14 01:13:43;;;;;;;6.03;1.70;;;15.90;99.90;;;;;;5093817;28;20052;-77
2023/06/14 01:16:10;;;;;;;9.38;1.77;;;15.80;99.90;;;;;;5093635;28;20536;-76
2023/06/14 01:18:36;;;;;;;5.38;1.60;;;15.90;99.90;;;;;;5093742;28;20043;-76
2023/06/14 01:21:05;;;;;;;5.60;1.58;;;15.80;99.90;;;;;;5092569;28;20044;-76
2023/06/14 01:23:33;;;;;;;5.68;2.45;;;15.80;99.90;;;;;;5093265;28;20522;-80
2023/06/14 01:26:07;;;;;;;5.95;1.90;;;15.80;99.90;;;;;;5093548;28;20063;-78
2023/06/14 01:28:34;;;;;;;6.05;2.17;;;15.80;99.90;;;;;;5093331;28;20131;-79
2023/06/14 01:31:04;;;;;;;6.40;1.60;;;15.80;99.90;;;;;;5093455;28;20411;-77
2023/06/14 01:33:32;;;;;;;7.00;2.30;;;15.70;99.90;;;;;;5093488;28;20046;-76
2023/06/14 01:35:59;;;;;;;6.30;2.65;;;15.70;99.90;;;;;;5097621;28;20076;-76
2023/06/14 01:38:26;;;;;;;5.22;2.28;;;15.70;99.90;;;;;;5096216;28;20040;-76
2023/06/14 01:40:54;;;;;;;6.75;1.58;;;15.60;99.90;;;;;;5096180;28;20044;-77
2023/06/14 01:43:21;;;;;;;7.50;1.92;;;15.70;99.90;;;;;;5095912;28;20048;-76
2023/06/14 01:45:48;;;;;;;5.82;2.00;;;15.70;99.90;;;;;;5095951;28;20054;-76
2023/06/14 01:48:15;;;;;;;5.00;2.03;;;15.70;99.90;;;;;;5097250;28;20056;-79
2023/06/14 01:50:40;;;;;;;8.25;2.20;;;15.70;99.90;;;;;;5095941;28;20055;-80
2023/06/14 01:53:10;;;;;;;6.45;3.28;;;15.60;99.90;;;;;;5097232;28;20044;-81
2023/06/14 01:55:37;;;;;;;5.00;2.22;;;15.60;99.90;;;;;;5095745;28;20040;-76
2023/06/14 01:58:06;;;;;;;5.03;2.28;;;15.60;99.90;;;;;;5095728;28;20105;-76
2023/06/14 02:00:32;;;;;;;4.75;2.10;;;15.70;99.90;;;;;;5096758;28;20475;-76
2023/06/14 02:02:57;;;;;;;5.45;2.25;;;15.60;99.90;;;;;;5097083;28;20105;-76
2023/06/14 02:05:24;;;;;;;4.85;1.85;;;15.60;99.90;;;;;;5096859;28;20036;-76
2023/06/14 02:07:50;;;;;;;4.78;2.03;;;15.60;99.90;;;;;;5095434;28;20483;-76
2023/06/14 02:10:17;;;;;;;6.82;2.28;;;15.60;99.90;;;;;;5096879;28;20044;-76
2023/06/14 02:12:43;;;;;;;6.28;2.30;;;15.60;99.90;;;;;;5095665;28;20391;-76
2023/06/14 02:15:16;;;;;;;6.68;2.30;;;15.50;99.90;;;;;;5096805;28;20048;-76
2023/06/14 02:17:42;;;;;;;;;;;15.50;99.90;;;;;;5097197;28;20455;-76
2023/06/14 02:20:09;;;;;;;6.93;2.33;;;15.50;99.90;;;;;;5096671;28;20307;-76
2023/06/14 02:22:35;;;;;;;6.05;2.35;;;15.50;99.90;;;;;;5096459;28;20080;-76
2023/06/14 02:25:03;;;;;;;6.47;2.85;;;15.50;99.90;;;;;;5096311;28;20087;-76
2023/06/14 02:27:29;;;;;;;7.22;2.42;;;15.50;99.90;;;;;;5096286;28;20507;-76
2023/06/14 02:29:55;;;;;;;7.93;2.63;;;15.50;99.90;;;;;;5096501;28;20108;-76
2023/06/14 02:32:20;;;;;;;8.20;2.35;;;15.50;99.90;;;;;;5096385;28;20110;-76
2023/06/14 02:34:49;;;;;;;7.53;2.70;;;15.50;99.90;;;;;;5096879;28;20044;-76
2023/06/14 02:37:15;;;;;;;8.38;2.45;;;15.50;99.90;;;;;;5096122;28;20396;-76
2023/06/14 02:39:41;;;;;;;4.85;2.28;;;15.50;99.90;;;;;;5096289;28;20086;-77
2023/06/14 02:42:07;;;;;;;5.93;2.55;;;15.50;99.90;;;;;;5096213;28;20035;-76
2023/06/14 02:44:32;;;;;;;6.93;2.42;;;15.40;99.90;;;;;;5095087;28;20055;-76
2023/06/14 02:47:00;;;;;;;5.10;2.25;;;15.40;99.90;;;;;;5095786;28;20131;-77
2023/06/14 02:49:26;;;;;;;5.60;2.60;;;15.40;99.90;;;;;;5096126;28;20040;-76
2023/06/14 02:51:52;;;;;;;5.50;2.58;;;15.40;99.90;;;;;;5094816;28;20051;-76
2023/06/14 02:54:17;;;;;;;9.05;2.65;;;15.40;99.90;;;;;;5095796;28;20054;-77
2023/06/14 02:56:44;;;;;;;5.20;2.58;;;15.40;99.90;;;;;;5095719;28;20071;-77
2023/06/14 02:59:09;;;;;;;6.95;2.90;;;15.40;99.90;;;;;;5095625;28;20128;-76
2023/06/14 03:01:35;;;;;;;7.32;2.78;;;15.30;99.90;;;;;;5095477;28;20131;-77
2023/06/14 03:04:04;;;;;;;6.00;2.85;;;15.30;99.90;;;;;;5093304;28;20097;-76
2023/06/14 03:06:30;;;;;;;5.25;2.50;;;15.30;99.90;;;;;;5093458;28;20134;-76
2023/06/14 03:09:00;;;;;;;8.15;2.83;;;15.30;99.90;;;;;;5095457;28;20119;-77
2023/06/14 03:11:26;;;;;;;4.57;2.60;;;15.30;99.90;;;;;;5095653;28;20109;-76
2023/06/14 03:13:53;;;;;;;5.32;2.60;;;15.30;99.90;;;;;;5095523;28;20044;-76
2023/06/14 03:16:19;;;;;;;7.03;3.28;;;15.30;99.90;;;;;;5095496;28;20032;-76
2023/06/14 03:18:45;;;;;;;6.82;2.90;;;15.30;99.90;;;;;;5095715;28;20127;-77
2023/06/14 03:21:11;;;;;;;8.82;3.50;;;15.20;99.90;;;;;;5095496;28;20119;-76
2023/06/14 03:23:37;;;;;;;6.75;2.85;;;15.20;99.90;;;;;;5095066;28;20052;-76
2023/06/14 03:26:03;;;;;;;8.73;3.10;;;15.30;99.90;;;;;;5095197;28;20054;-76
2023/06/14 03:28:29;;;;;;;8.35;2.92;;;15.30;99.90;;;;;;5093737;28;20059;-76
2023/06/14 03:30:54;;;;;;;7.07;3.00;;;15.20;99.90;;;;;;5094836;28;20399;-76
2023/06/14 03:33:20;;;;;;;8.35;2.88;;;15.30;99.90;;;;;;5094865;28;20476;-76
2023/06/14 03:35:46;;;;;;;5.88;2.67;;;15.30;99.90;;;;;;5095105;28;20040;-76
2023/06/14 03:38:12;;;;;;;7.78;2.60;;;15.30;99.90;;;;;;5095067;28;20047;-76
2023/06/14 03:40:38;;;;;;;6.97;3.10;;;15.30;99.90;;;;;;5095067;28;20044;-76
2023/06/14 03:43:03;;;;;;;8.32;3.00;;;15.20;99.90;;;;;;5093611;28;20036;-76
2023/06/14 03:45:29;;;;;;;8.02;2.70;;;15.20;99.90;;;;;;5094697;28;20048;-76
2023/06/14 03:47:56;;;;;;;7.20;3.47;;;15.20;99.90;;;;;;5093483;28;20087;-76
2023/06/14 03:50:22;;;;;;;6.50;3.00;;;15.20;99.90;;;;;;5094939;28;20032;-76
2023/06/14 03:52:48;;;;;;;7.88;3.05;;;15.20;99.90;;;;;;5093627;28;20044;-76
2023/06/14 03:55:15;;;;;;;7.53;2.80;;;15.20;99.90;;;;;;5094723;28;20047;-76
2023/06/14 03:57:41;;;;;;;6.68;2.63;;;15.20;99.90;;;;;;5092976;28;20062;-76
2023/06/14 04:00:09;;;;;;;6.80;2.90;;;15.20;99.90;;;;;;5093212;28;20387;-76
2023/06/14 04:02:36;;;;;;;6.85;3.53;;;15.20;99.90;;;;;;5094478;28;20051;-76
2023/06/14 04:05:02;;;;;;;5.43;3.10;;;15.20;99.90;;;;;;5093201;28;20480;-76
2023/06/14 04:07:28;;;;;;;5.82;3.00;;;15.20;99.90;;;;;;5094444;28;20047;-76
2023/06/14 04:09:55;;;;;;;5.93;3.58;;;15.30;99.90;;;;;;5094566;28;20039;-76
2023/06/14 04:12:21;;;;;;;7.53;3.20;;;15.40;99.90;;;;;;5094276;28;20044;-76
2023/06/14 04:14:46;;;;;;;7.63;3.38;;;15.50;99.90;;;;;;5094215;28;20048;-76
2023/06/14 04:17:12;;;;;;;6.00;3.00;;;15.50;99.90;;;;;;5094092;28;20043;-76
2023/06/14 04:19:38;;;;;;;6.78;3.10;;;15.60;99.90;;;;;;5093112;28;20054;-76
2023/06/14 04:22:03;;;;;;;5.82;3.40;;;15.60;99.90;;;;;;5093068;28;20074;-76
2023/06/14 04:24:31;;;;;;;6.15;3.00;;;15.70;99.90;;;;;;5093923;28;20092;-76
2023/06/14 04:26:59;;;;;;;5.97;2.80;;;15.80;99.90;;;;;;5093915;28;20040;-76
2023/06/14 04:29:26;;;;;;;9.98;3.20;;;15.80;99.90;;;;;;5093960;28;20133;-76
2023/06/14 04:31:54;;;;;;;8.82;3.45;;;15.90;99.90;;;;;;5094146;28;20126;-76
2023/06/14 04:34:21;;;;;;;6.53;3.17;;;15.80;99.90;;;;;;5092571;28;20048;-76
2023/06/14 04:36:52;;;;;;;7.93;3.20;;;15.90;99.90;;;;;;5093923;28;20040;-76
2023/06/14 04:39:19;;;;;;;6.75;3.20;;;16.00;99.90;;;;;;5092797;28;20483;-76
2023/06/14 04:41:45;;;;;;;7.13;3.20;;;16.10;99.90;;;;;;5093902;28;20123;-76
2023/06/14 04:44:12;;;;;;;5.78;3.20;;;16.20;99.90;;;;;;5093759;28;20186;-76
2023/06/14 04:46:45;;;;;;;6.07;3.25;;;16.20;99.90;;;;;;5093686;28;20373;-76
2023/06/14 04:49:14;;;;;;;7.32;3.53;;;16.30;99.90;;;;;;5092444;28;20100;-76
2023/06/14 04:51:41;;;;;;;5.85;2.88;;;16.40;99.90;;;;;;5092409;28;20054;-76
2023/06/14 04:54:09;;;;;;;7.30;3.50;;;16.50;99.90;;;;;;5093619;28;20052;-76
2023/06/14 04:56:37;;;;;;;6.93;3.45;;;16.40;99.90;;;;;;5093821;28;20040;-76
2023/06/14 04:59:05;;;;;;;6.20;3.00;;;16.50;99.90;;;;;;5093799;28;20075;-76
2023/06/14 05:01:32;;;;;;;7.60;3.42;;;16.60;99.90;;;;;;5092533;28;20124;-76
2023/06/14 05:03:59;;;;;;;7.25;3.75;;;16.40;99.90;;;;;;5092837;28;20063;-76
2023/06/14 05:06:26;;;;;;;7.53;3.78;;;16.60;99.90;;;;;;5092477;28;20139;-76
2023/06/14 05:08:51;;;;;;;4.72;3.40;;;16.80;99.90;;;;;;5095365;28;20058;-76
2023/06/14 05:11:17;;;;;;;8.55;3.53;;;16.80;99.90;;;;;;5097884;28;20039;-76
2023/06/14 05:13:44;;;;;;;5.50;3.47;;;16.90;99.90;;;;;;5096424;28;20051;-76
2023/06/14 05:16:15;;;;;;;6.95;3.72;;;17.00;99.90;;;;;;5096580;28;20087;-76
2023/06/14 05:18:41;;;;;;;7.38;3.63;;;17.00;99.90;;;;;;5096587;28;20052;-76
2023/06/14 05:21:06;;;;;;;7.07;3.90;;;17.20;99.90;;;;;;5097408;28;20101;-76
2023/06/14 05:23:32;;;;;;;7.35;3.53;;;17.10;99.90;;;;;;5097429;28;20083;-76
2023/06/14 05:25:58;;;;;;;7.32;3.53;;;17.10;99.90;;;;;;5097404;28;20455;-76
2023/06/14 05:28:24;;;;;;;8.52;3.90;;;17.20;99.90;;;;;;5095984;28;20055;-76
2023/06/14 05:30:50;;;;;;;7.78;3.50;;;17.20;99.90;;;;;;5097480;28;20093;-75
2023/06/14 05:33:16;;;;;;;8.18;3.40;;;17.30;99.90;;;;;;5097142;28;20043;-76
2023/06/14 05:35:42;;;;;;;5.60;3.42;;;17.50;99.90;;;;;;5097290;28;20059;-76
2023/06/14 05:38:08;;;;;;;6.30;4.50;;;17.50;99.90;;;;;;5097407;28;20499;-77
2023/06/14 05:40:33;;;;;;;5.65;3.47;;;17.70;99.90;;;;;;5097425;28;20040;-76
2023/06/14 05:42:59;;;;;;;9.18;4.00;;;17.80;99.90;;;;;;5095753;28;20052;-76
2023/06/14 05:45:25;;;;;;;7.82;3.53;;;17.70;99.90;;;;;;5096100;28;20466;-77
2023/06/14 05:47:54;;;;;;;7.70;3.58;;;18.00;99.90;;;;;;5096933;28;20471;-76
2023/06/14 05:50:20;;;;;;;7.38;3.63;;;18.00;99.90;;;;;;5096869;28;20060;-77
2023/06/14 05:52:46;;;;;;;8.57;3.95;;;18.00;99.90;;;;;;5097133;28;20072;-77
2023/06/14 05:55:14;;;;;;;7.35;3.33;;;18.10;99.90;;;;;;5095786;28;20083;-77
2023/06/14 05:57:40;;;;;;;8.90;3.58;;;18.40;99.90;;;;;;5096882;28;20126;-77
2023/06/14 06:00:11;;;;;;;6.38;3.70;;;18.50;99.90;;;;;;5096774;28;20133;-77
2023/06/14 06:02:37;;;;;;;7.57;3.60;;;18.40;99.90;;;;;;5095553;28;20073;-77
2023/06/14 06:05:02;;;;;;;8.13;3.55;;;18.70;99.90;;;;;;5096773;28;20078;-77
2023/06/14 06:07:28;;;;;;;6.25;3.50;;;18.80;99.90;;;;;;5096829;28;20032;-76
2023/06/14 06:09:54;;;;;;;7.40;3.53;;;19.00;99.90;;;;;;5095366;28;20497;-77
2023/06/14 06:12:20;;;;;;;6.57;3.63;;;19.00;99.90;;;;;;5096734;28;20044;-77
2023/06/14 06:14:45;;;;;;;5.40;3.60;;;19.10;99.90;;;;;;5095228;28;20484;-76
2023/06/14 06:17:11;;;;;;;8.93;3.67;;;19.20;99.90;;;;;;5096338;28;20044;-76
2023/06/14 06:19:36;;;;;;;7.60;4.85;;;19.40;99.90;;;;;;5094669;28;20051;-77
2023/06/14 06:22:06;;;;;;;6.07;3.38;;;19.30;99.90;;;;;;5087047;28;20088;-78
2023/06/14 06:24:32;;;;;;;7.00;3.50;;;19.40;99.90;;;;;;5075854;28;20094;-76
2023/06/14 06:26:58;;;;;;;6.45;3.50;;;19.60;99.90;;;;;;5074710;28;20052;-79
2023/06/14 06:29:23;;;;;;;7.53;3.80;;;19.90;99.90;;;;;;5074751;28;20053;-75
2023/06/14 06:31:49;;;;;;;8.57;3.88;;;20.00;99.90;;;;;;5075972;28;20043;-77
2023/06/14 06:34:15;;;;;;;10.07;4.05;;;20.30;99.90;;;;;;5074608;28;20052;-77
2023/06/14 06:36:42;;;;;;;11.20;3.50;;;20.50;99.90;;;;;;5075771;28;20115;-76
2023/06/14 06:39:10;;;;;;;5.53;3.08;;;20.30;99.90;;;;;;5075583;28;20040;-77
2023/06/14 06:41:39;;;;;;;7.95;4.03;;;20.60;99.90;;;;;;5074548;28;20045;-75
2023/06/14 06:44:10;;;;;;;11.43;3.70;;;20.40;99.90;;;;;;5075533;28;20084;-74
2023/06/14 06:46:39;;;;;;;12.18;3.60;;;20.60;99.90;;;;;;5075271;28;20492;-76
2023/06/14 06:49:06;;;;;;;10.77;3.58;;;20.60;99.90;;;;;;5075424;28;20049;-76
2023/06/14 06:51:31;;;;;;;11.05;3.67;;;20.70;99.90;;;;;;5074107;28;20387;-76
2023/06/14 06:53:57;;;;;;;8.93;3.55;;;20.70;99.90;;;;;;5075478;28;20547;-76
2023/06/14 06:56:24;;;;;;;13.68;3.75;;;20.80;99.90;;;;;;5074086;28;20036;-76
2023/06/14 06:58:50;;;;;;;7.30;3.30;;;20.70;99.90;;;;;;5075226;28;20128;-76
2023/06/14 07:01:16;;;;;;;9.45;3.67;;;21.00;99.90;;;;;;5074137;28;20135;-77
2023/06/14 07:03:42;;;;;;;5.95;3.17;;;21.20;99.90;;;;;;5075373;28;20086;-76
2023/06/14 07:06:08;;;;;;;6.32;3.55;;;21.30;99.90;;;;;;5074119;28;20044;-77
2023/06/14 07:08:34;;;;;;;8.35;3.35;;;21.40;99.90;;;;;;5075173;28;20392;-76
2023/06/14 07:11:00;;;;;;;6.55;3.03;;;21.20;99.90;;;;;;5075298;28;20044;-77
2023/06/14 07:13:25;;;;;;;6.20;3.38;;;21.60;99.90;;;;;;5075085;28;20051;-78
2023/06/14 07:15:55;;;;;;;8.32;2.80;;;21.60;99.90;;;;;;5073614;28;20044;-75
2023/06/14 07:18:20;;;;;;;8.18;3.60;;;21.60;99.90;;;;;;5074822;28;20385;-77
2023/06/14 07:20:47;;;;;;;7.18;3.17;;;22.00;99.90;;;;;;5073705;28;20050;-78
2023/06/14 07:23:13;;;;;;;5.07;3.00;;;22.10;99.90;;;;;;5073262;28;20060;-78
2023/06/14 07:25:38;;;;;;;6.70;3.00;;;22.20;99.90;;;;;;5073481;28;20046;-76
2023/06/14 07:28:04;;;;;;;6.43;2.88;;;22.50;99.90;;;;;;5074699;28;20047;-77
2023/06/14 07:30:30;;;;;;;7.45;3.00;;;22.50;99.90;;;;;;5074123;28;20096;-76
2023/06/14 07:32:56;;;;;;;6.45;2.67;;;22.60;99.90;;;;;;5074387;28;20086;-76
2023/06/14 07:35:22;;;;;;;6.35;3.15;;;22.80;99.90;;;;;;5073512;28;20556;-81
2023/06/14 07:37:48;;;;;;;6.13;2.90;;;22.70;99.90;;;;;;5073486;28;20048;-76
2023/06/14 07:40:13;;;;;;;6.80;4.40;;;22.70;99.90;;;;;;5073184;28;20111;-77
2023/06/14 07:42:39;;;;;;;6.10;3.38;;;22.80;99.90;;;;;;5074644;28;20045;-77
2023/06/14 07:45:06;;;;;;;4.55;3.10;;;22.70;99.90;;;;;;5072964;28;20049;-77
2023/06/14 07:47:32;;;;;;;5.18;3.00;;;22.90;99.90;;;;;;5074462;28;20143;-78
2023/06/14 07:49:57;;;;;;;7.63;3.25;;;23.00;99.90;;;;;;5074500;28;20090;-79
2023/06/14 07:52:23;;;;;;;6.25;3.17;;;22.80;99.90;;;;;;5072951;28;20048;-77
2023/06/14 07:54:49;;;;;;;5.30;2.97;;;22.80;99.90;;;;;;5074144;28;20077;-77
2023/06/14 07:57:14;;;;;;;12.50;3.35;;;23.10;99.90;;;;;;5072776;28;20476;-77
2023/06/14 07:59:40;;;;;;;6.15;2.97;;;23.10;99.90;;;;;;5072728;28;20178;-76
2023/06/14 08:02:06;;;;;;;6.10;3.17;;;23.10;99.90;;;;;;5074226;28;20071;-77
2023/06/14 08:04:32;;;;;;;5.90;2.67;;;23.40;99.90;;;;;;5074143;28;20041;-78
2023/06/14 08:06:59;;;;;;;7.82;2.70;;;23.50;99.90;;;;;;5074107;28;20543;-78
2023/06/14 08:09:25;;;;;;;3.55;2.47;;;23.40;99.50;;;;;;5073849;28;20052;-78
2023/06/14 08:11:51;;;;;;;4.90;2.70;;;23.30;99.30;;;;;;5072590;28;20178;-78
2023/06/14 08:14:16;;;;;;;7.20;2.67;;;23.60;99.90;;;;;;5073740;28;20522;-77
2023/06/14 08:16:42;;;;;;;6.07;2.97;;;23.70;99.60;;;;;;5072605;28;20498;-78
2023/06/14 08:19:08;;;;;;;4.22;2.30;;;23.70;99.00;;;;;;5072771;28;20043;-79
2023/06/14 08:21:36;;;;;;;4.70;2.60;;;23.80;99.00;;;;;;5072534;28;20126;-77
2023/06/14 08:24:02;;;;;;;6.10;2.67;;;23.80;98.40;;;;;;5072226;28;20411;-76
2023/06/14 08:26:31;;;;;;;8.98;2.63;;;23.80;98.70;;;;;;5072259;28;20515;-76
2023/06/14 08:28:59;;;;;;;5.18;2.58;;;24.00;98.30;;;;;;5073668;28;20091;-78
2023/06/14 08:31:25;;;;;;;9.50;2.78;;;24.20;99.60;;;;;;5073425;28;20503;-77
2023/06/14 08:33:51;;;;;;;8.82;2.50;;;24.20;98.90;;;;;;5072447;28;20106;-77
2023/06/14 08:36:16;;;;;;;7.05;2.85;;;24.30;98.80;;;;;;5072360;28;20052;-76
2023/06/14 08:38:42;;;;;;;12.52;4.45;;;24.60;98.30;;;;;;5072462;28;20075;-76
2023/06/14 08:41:11;;;;;;;5.00;2.53;;;24.60;98.30;;;;;;5073236;28;20431;-77
2023/06/14 08:43:37;;;;;;;7.40;2.78;;;24.60;97.70;;;;;;5073148;28;20049;-76
2023/06/14 08:46:06;;;;;;;7.05;3.00;;;24.40;96.50;;;;;;5072056;28;20055;-77
2023/06/14 08:48:33;;;;;;;4.53;2.28;;;24.60;97.10;;;;;;5072040;28;20425;-77
2023/06/14 08:51:04;;;;;;;5.95;2.60;;;24.70;97.60;;;;;;5072143;28;20550;-79
2023/06/14 08:53:33;;;;;;;6.75;2.67;;;24.50;96.90;;;;;;5073479;28;20067;-77
2023/06/14 08:56:04;;;;;;;5.68;3.00;;;24.80;96.80;;;;;;5072147;28;20040;-76
2023/06/14 08:58:31;;;;;;;6.28;2.63;;;24.60;97.10;;;;;;5073255;28;20057;-76
2023/06/14 09:01:02;;;;;;;3.97;2.35;;;24.50;96.00;;;;;;5071819;28;20048;-79
2023/06/14 09:03:30;;;;;;;6.07;2.67;;;24.10;97.20;;;;;;5073296;28;20044;-78
2023/06/14 09:06:00;;;;;;;7.80;2.88;;;24.20;97.70;;;;;;5072002;28;20538;-77
2023/06/14 09:08:30;;;;;;;5.75;2.80;;;24.50;97.30;;;;;;5073321;28;20064;-74
2023/06/14 09:10:56;;;;;;;6.00;2.53;;;24.40;97.10;;;;;;5071946;28;20055;-79
2023/06/14 09:13:22;;;;;;;4.65;2.55;;;24.80;97.50;;;;;;5071965;28;20492;-78
2023/06/14 09:15:48;;;;;;;5.45;2.17;;;24.80;96.70;;;;;;5072909;28;20051;-79
2023/06/14 09:18:13;;;;;;;4.78;2.40;;;24.90;97.50;;;;;;5071710;28;20045;-77
2023/06/14 09:20:40;;;;;;;7.05;2.30;;;24.60;96.30;;;;;;5071539;28;20051;-77
2023/06/14 09:23:07;;;;;;;5.25;2.38;;;24.50;96.90;;;;;;5072979;28;20071;-77
2023/06/14 09:25:46;;;;;;;5.80;2.40;;;24.60;96.40;;;;;;5073227;28;20048;-76
2023/06/14 09:28:12;;;;;;;5.72;2.88;;;24.70;97.20;;;;;;5073031;28;20047;-78
2023/06/14 09:30:40;;;;;;;5.70;2.97;;;24.90;96.80;;;;;;5073194;28;20037;-77
2023/06/14 09:33:06;;;;;;;11.10;3.67;;;24.40;98.00;;;;;;5072775;28;20541;-79
2023/06/14 09:35:32;;;;;;;9.30;3.58;;;23.60;99.90;;;;;;5071785;28;20055;-77
2023/06/14 09:37:58;;;;;;;9.32;3.33;;;24.00;99.90;;;;;;5073120;28;20135;-76
2023/06/14 09:40:24;;;;;;;6.03;3.28;;;24.00;99.90;;;;;;5073118;28;20438;-81
2023/06/14 09:42:51;;;;;;;9.25;3.35;;;24.20;99.90;;;;;;5072859;28;20121;-79
2023/06/14 09:45:21;;;;;;;9.73;3.40;;;23.90;99.90;;;;;;5072888;28;20076;-78
2023/06/14 09:47:51;;;;;;;8.88;3.83;;;23.50;99.90;;;;;;5072526;28;20408;-76
2023/06/14 09:50:16;;;;;;;6.70;3.38;;;23.70;99.90;;;;;;5071323;28;20119;-73
2023/06/14 09:52:44;;;;;;;6.80;3.97;;;23.90;99.90;;;;;;5072889;28;20227;-78
2023/06/14 09:55:14;;;;;;;8.23;3.65;;;24.00;99.90;;;;;;5073456;28;20492;-76
2023/06/14 09:57:43;;;;;;;7.60;3.65;;;24.10;99.90;;;;;;5076448;28;20048;-78
2023/06/14 10:00:12;;;;;;;7.88;3.63;;;24.20;99.90;;;;;;5076578;28;20059;-76
2023/06/14 10:02:42;;;;;;;8.13;3.80;;;23.80;99.90;;;;;;5076732;28;20076;-78
2023/06/14 10:05:10;;;;;;;6.68;3.17;;;23.70;99.90;;;;;;5075309;28;20117;-77
2023/06/14 10:07:41;;;;;;;8.75;3.08;;;23.80;99.90;;;;;;5074909;28;20444;-78
2023/06/14 10:10:07;;;;;;;6.22;3.20;;;23.70;99.90;;;;;;5076463;28;20041;-76
2023/06/14 10:12:36;;;;;;;9.73;3.75;;;23.40;99.90;;;;;;5074926;28;20080;-75
2023/06/14 10:15:03;;;;;;;9.15;3.15;;;23.40;99.90;;;;;;5074683;28;20403;-76
2023/06/14 10:17:55;;;;;;;5.97;3.13;;;23.60;99.90;;;;;;5074973;28;20127;-76
2023/06/14 10:20:45;;;;;;;8.68;3.25;;;23.50;99.90;;;;;;5108417;28;20389;-76
2023/06/14 10:23:16;;;;;;;6.35;3.38;;;23.40;99.90;;;;;;5075919;28;20057;-77
2023/06/14 10:25:42;;;;;;;8.18;3.88;;;23.20;99.90;;;;;;5076113;28;20036;-79
2023/06/14 10:28:16;;;;;;;7.38;3.53;;;23.30;99.90;;;;;;5075781;28;20052;-78
2023/06/14 10:31:09;;;;;;;6.25;3.53;;;23.50;99.90;;;;;;5074706;28;20040;-78
2023/06/14 10:33:57;;;;;;;6.07;3.58;;;23.60;99.90;;;;;;5074480;28;20127;-77
2023/06/14 10:36:22;;;;;;;10.80;3.75;;;23.40;99.90;;;;;;5074384;28;20427;-77
2023/06/14 10:39:10;;;;;;;8.48;3.25;;;23.10;99.90;;;;;;5074381;28;20048;-76
2023/06/14 10:41:40;;;;;;;14.82;3.45;;;23.30;99.90;;;;;;5074335;28;20032;-77
2023/06/14 10:44:14;;;;;;;9.25;3.15;;;23.40;99.90;;;;;;5074245;28;20053;-78
2023/06/14 10:46:46;;;;;;;10.82;3.67;;;23.70;99.90;;;;;;5074233;28;20059;-78
2023/06/14 10:49:11;;;;;;;11.80;3.60;;;23.70;99.90;;;;;;5085215;28;20040;-76
2023/06/14 10:51:45;;;;;;;6.90;2.75;;;23.40;99.90;;;;;;5075417;28;20050;-77
2023/06/14 10:54:15;;;;;;;6.05;3.40;;;24.00;99.90;;;;;;5074474;28;20051;-79
2023/06/14 10:56:52;;;;;;;6.65;3.10;;;23.60;99.90;;;;;;5074271;28;20408;-78
2023/06/14 10:59:19;;;;;;;7.85;3.05;;;23.70;99.90;;;;;;5075456;28;20102;-79
2023/06/14 11:02:20;;;;;;;7.55;3.35;;;23.60;99.90;;;;;;5073883;28;20488;-78
2023/06/14 11:04:52;;;;;;;5.78;3.20;;;23.70;99.90;;;;;;5061578;28;20079;-79
2023/06/14 11:07:45;;;;;;;9.60;3.13;;;23.90;99.90;;;;;;5072772;28;20127;-78
2023/06/14 11:10:20;;;;;;;11.07;3.55;;;23.70;99.90;;;;;;5074313;28;20049;-76
2023/06/14 11:12:48;;;;;;;11.25;3.55;;;23.70;99.90;;;;;;5073709;28;20489;-77
2023/06/14 11:15:14;;;;;;;8.13;3.22;;;23.80;99.90;;;;;;5073910;28;20536;-76
2023/06/14 11:17:51;;;;;;;4.75;2.70;;;23.60;99.90;;;;;;5073633;28;20315;-76
2023/06/14 11:20:17;;;;;;;7.70;3.55;;;23.90;99.90;;;;;;5074852;28;20497;-77
2023/06/14 11:22:45;;;;;;;10.00;4.00;;;24.10;99.90;;;;;;5073592;28;20045;-75
2023/06/14 11:25:14;;;;;;;9.05;4.05;;;24.40;99.90;;;;;;5073471;28;20057;-76
2023/06/14 11:27:44;;;;;;;6.88;3.80;;;24.40;99.90;;;;;;5074541;28;20063;-77
2023/06/14 11:30:11;;;;;;;8.90;4.10;;;24.60;99.90;;;;;;5073567;28;20078;-83
2023/06/14 11:32:37;;;;;;;13.63;4.75;;;24.90;99.90;;;;;;5074940;28;20044;-80
2023/06/14 11:35:04;;;;;;;9.85;4.03;;;24.80;99.90;;;;;;5073340;28;20129;-78
2023/06/14 11:37:34;;;;;;;13.50;4.28;;;25.00;99.90;;;;;;5074427;28;20502;-78
2023/06/14 11:40:01;;;;;;;7.80;4.50;;;25.00;99.90;;;;;;5073132;28;20055;-77
2023/06/14 11:42:28;;;;;;;10.70;4.07;;;25.30;99.90;;;;;;5073062;28;20040;-81
2023/06/14 11:44:54;;;;;;;9.90;3.75;;;25.40;99.90;;;;;;5072924;28;20433;-80
2023/06/14 11:47:20;;;;;;;10.10;4.57;;;25.20;99.90;;;;;;5074480;28;20044;-78
2023/06/14 11:49:47;;;;;;;9.13;4.28;;;25.10;99.90;;;;;;5073213;28;20051;-77
2023/06/14 11:52:13;;;;;;;8.57;4.78;;;25.30;99.90;;;;;;5074190;28;20132;-78
2023/06/14 11:54:40;;;;;;;8.52;4.10;;;25.20;99.90;;;;;;5074170;28;20033;-80
2023/06/14 11:57:10;;;;;;;11.82;4.30;;;25.30;99.90;;;;;;5073035;28;20048;-78
2023/06/14 11:59:40;;;;;;;8.27;4.18;;;25.30;99.90;;;;;;5072865;28;20396;-77
2023/06/14 12:02:06;;;;;;;9.55;4.55;;;25.20;99.90;;;;;;5074005;28;20499;-78
2023/06/14 12:04:32;;;;;;;11.95;4.38;;;25.00;99.90;;;;;;5072970;28;20049;-80
2023/06/14 12:07:17;;;;;;;14.48;4.60;;;24.60;99.90;;;;;;5074076;28;20055;-77
2023/06/14 12:10:06;;;;;;;16.70;4.60;;;24.60;99.90;;;;;;5073847;28;20044;-78
2023/06/14 12:12:35;;;;;;;13.88;4.53;;;24.20;99.90;;;;;;5074176;28;20082;-78
2023/06/14 12:15:03;;;;;;;15.38;4.53;;;24.20;99.90;;;;;;5074040;28;20162;-78
2023/06/14 12:17:32;;;;;;;13.05;4.65;;;24.40;99.90;;;;;;5072271;28;20044;-77
2023/06/14 12:19:58;;;;;;;11.05;4.28;;;24.50;99.90;;;;;;5072323;28;20488;-78
2023/06/14 12:22:23;;;;;;;11.10;4.00;;;24.20;99.90;;;;;;5072234;28;20036;-77
2023/06/14 12:24:51;;;;;;;10.77;3.90;;;24.40;99.90;;;;;;5072165;28;20106;-78
2023/06/14 12:27:18;;;;;;;12.23;3.70;;;24.20;99.90;;;;;;5073439;28;20514;-79
2023/06/14 12:29:44;;;;;;;11.57;4.18;;;24.30;99.90;;;;;;5073817;28;20066;-78
2023/06/14 12:32:11;;;;;;;10.90;4.30;;;24.30;99.90;;;;;;5072434;28;20140;-77
2023/06/14 12:34:37;;;;;;;15.68;3.63;;;24.20;99.90;;;;;;5072165;28;20048;-77
2023/06/14 12:37:06;;;;;;;7.22;3.40;;;24.40;99.90;;;;;;5073662;28;20102;-78
2023/06/14 12:39:32;;;;;;;19.08;5.32;;;24.70;99.90;;;;;;5072386;28;20041;-78
2023/06/14 12:41:58;;;;;;;15.88;3.97;;;24.20;99.90;;;;;;5072148;28;20511;-80
2023/06/14 12:44:23;;;;;;;11.85;4.32;;;24.10;99.90;;;;;;5072112;28;20045;-78
2023/06/14 12:46:51;;;;;;;17.90;5.18;;;24.20;99.90;;;;;;5071963;28;20044;-78
2023/06/14 12:49:17;;;;;;;11.25;3.70;;;23.80;99.90;;;;;;5073814;28;20367;-78